sensor_id;sensor_type;location;lat;lon;timestamp;temperature;humidity
774;DHT22;370;48.810;9.150;2022-07-23T00:02:23;25.60;1.00
774;DHT22;370;48.810;9.150;2022-07-23T00:04:50;25.50;1.00
774;DHT22;370;48.810;9.150;2022-07-23T00:07:19;25.40;1.00
774;DHT22;370;48.810;9.150;2022-07-23T00:09:45;25.40;1.00
774;DHT22;370;48.810;9.150;2022-07-23T00:12:12;25.30;1.00
774;DHT22;370;48.810;9.150;2022-07-23T00:14:40;25.20;1.00
774;DHT22;370;48.810;9.150;2022-07-23T00:17:07;25.30;1.00
774;DHT22;370;48.810;9.150;2022-07-23T00:19:35;25.20;1.00
774;DHT22;370;48.810;9.150;2022-07-23T00:22:02;25.10;1.00
774;DHT22;370;48.810;9.150;2022-07-23T00:24:29;25.10;1.00
774;DHT22;370;48.810;9.150;2022-07-23T00:26:55;25.00;1.00
774;DHT22;370;48.810;9.150;2022-07-23T00:29:22;25.00;1.00
774;DHT22;370;48.810;9.150;2022-07-23T00:31:50;24.90;1.00
774;DHT22;370;48.810;9.150;2022-07-23T00:34:17;24.80;1.00
774;DHT22;370;48.810;9.150;2022-07-23T00:36:44;24.80;1.00
774;DHT22;370;48.810;9.150;2022-07-23T00:39:10;24.70;1.00
774;DHT22;370;48.810;9.150;2022-07-23T00:41:37;24.70;1.00
774;DHT22;370;48.810;9.150;2022-07-23T00:44:17;24.80;1.00
774;DHT22;370;48.810;9.150;2022-07-23T00:46:46;24.90;1.00
774;DHT22;370;48.810;9.150;2022-07-23T00:49:15;24.80;1.00
774;DHT22;370;48.810;9.150;2022-07-23T00:51:42;24.60;1.00
774;DHT22;370;48.810;9.150;2022-07-23T00:54:09;24.50;1.00
774;DHT22;370;48.810;9.150;2022-07-23T00:56:36;24.40;1.00
774;DHT22;370;48.810;9.150;2022-07-23T00:59:03;24.30;1.00
774;DHT22;370;48.810;9.150;2022-07-23T01:01:30;24.40;1.00
774;DHT22;370;48.810;9.150;2022-07-23T01:03:56;24.40;1.00
774;DHT22;370;48.810;9.150;2022-07-23T01:06:24;24.40;1.00
774;DHT22;370;48.810;9.150;2022-07-23T01:08:51;24.40;1.00
774;DHT22;370;48.810;9.150;2022-07-23T01:11:19;24.20;1.00
774;DHT22;370;48.810;9.150;2022-07-23T01:13:46;24.20;1.00
774;DHT22;370;48.810;9.150;2022-07-23T01:16:13;24.20;1.00
774;DHT22;370;48.810;9.150;2022-07-23T01:18:40;24.20;1.00
774;DHT22;370;48.810;9.150;2022-07-23T01:21:09;24.20;1.00
774;DHT22;370;48.810;9.150;2022-07-23T01:23:40;24.10;1.00
774;DHT22;370;48.810;9.150;2022-07-23T01:26:06;24.20;1.00
774;DHT22;370;48.810;9.150;2022-07-23T01:28:33;24.20;1.00
774;DHT22;370;48.810;9.150;2022-07-23T01:31:00;24.20;1.00
774;DHT22;370;48.810;9.150;2022-07-23T01:33:27;24.20;1.00
774;DHT22;370;48.810;9.150;2022-07-23T01:35:53;24.20;1.00
774;DHT22;370;48.810;9.150;2022-07-23T01:38:20;24.10;1.00
774;DHT22;370;48.810;9.150;2022-07-23T01:40:48;24.00;1.00
774;DHT22;370;48.810;9.150;2022-07-23T01:43:15;24.10;1.00
774;DHT22;370;48.810;9.150;2022-07-23T01:45:42;24.10;1.00
774;DHT22;370;48.810;9.150;2022-07-23T01:48:09;24.10;1.00
774;DHT22;370;48.810;9.150;2022-07-23T01:50:36;24.10;1.00
774;DHT22;370;48.810;9.150;2022-07-23T01:53:03;24.00;1.00
774;DHT22;370;48.810;9.150;2022-07-23T01:55:30;23.90;1.00
774;DHT22;370;48.810;9.150;2022-07-23T01:57:58;24.00;1.00
774;DHT22;370;48.810;9.150;2022-07-23T02:00:24;24.00;1.00
774;DHT22;370;48.810;9.150;2022-07-23T02:02:51;24.00;1.00
774;DHT22;370;48.810;9.150;2022-07-23T02:05:18;23.90;1.00
774;DHT22;370;48.810;9.150;2022-07-23T02:07:45;23.80;1.00
774;DHT22;370;48.810;9.150;2022-07-23T02:10:11;23.60;1.00
774;DHT22;370;48.810;9.150;2022-07-23T02:12:38;23.50;1.00
774;DHT22;370;48.810;9.150;2022-07-23T02:15:07;23.40;1.00
774;DHT22;370;48.810;9.150;2022-07-23T02:17:34;23.50;1.00
774;DHT22;370;48.810;9.150;2022-07-23T02:20:01;23.40;1.00
774;DHT22;370;48.810;9.150;2022-07-23T02:22:28;23.30;1.00
774;DHT22;370;48.810;9.150;2022-07-23T02:24:54;23.30;1.00
774;DHT22;370;48.810;9.150;2022-07-23T02:27:21;23.40;1.00
774;DHT22;370;48.810;9.150;2022-07-23T02:29:48;23.30;1.00
774;DHT22;370;48.810;9.150;2022-07-23T02:32:17;23.20;1.00
774;DHT22;370;48.810;9.150;2022-07-23T02:34:43;23.10;1.00
774;DHT22;370;48.810;9.150;2022-07-23T02:37:10;23.00;1.00
774;DHT22;370;48.810;9.150;2022-07-23T02:39:37;23.00;1.10
774;DHT22;370;48.810;9.150;2022-07-23T02:42:04;22.90;1.10
774;DHT22;370;48.810;9.150;2022-07-23T02:44:31;23.10;1.20
774;DHT22;370;48.810;9.150;2022-07-23T02:46:57;23.20;1.00
774;DHT22;370;48.810;9.150;2022-07-23T02:49:25;23.20;1.00
774;DHT22;370;48.810;9.150;2022-07-23T02:51:52;23.10;1.10
774;DHT22;370;48.810;9.150;2022-07-23T02:54:19;22.90;2.10
774;DHT22;370;48.810;9.150;2022-07-23T02:56:46;22.80;2.60
774;DHT22;370;48.810;9.150;2022-07-23T02:59:13;22.70;3.30
774;DHT22;370;48.810;9.150;2022-07-23T03:01:40;22.60;3.40
774;DHT22;370;48.810;9.150;2022-07-23T03:04:06;22.60;3.30
774;DHT22;370;48.810;9.150;2022-07-23T03:06:34;22.60;3.30
774;DHT22;370;48.810;9.150;2022-07-23T03:09:01;22.60;3.60
774;DHT22;370;48.810;9.150;2022-07-23T03:11:28;22.60;3.80
774;DHT22;370;48.810;9.150;2022-07-23T03:13:55;22.70;3.70
774;DHT22;370;48.810;9.150;2022-07-23T03:16:22;22.70;3.70
774;DHT22;370;48.810;9.150;2022-07-23T03:18:48;22.70;4.60
774;DHT22;370;48.810;9.150;2022-07-23T03:21:15;22.60;4.50
774;DHT22;370;48.810;9.150;2022-07-23T03:23:43;22.40;4.40
774;DHT22;370;48.810;9.150;2022-07-23T03:26:10;22.40;5.20
774;DHT22;370;48.810;9.150;2022-07-23T03:28:37;22.20;5.80
774;DHT22;370;48.810;9.150;2022-07-23T03:31:03;22.20;6.60
774;DHT22;370;48.810;9.150;2022-07-23T03:33:30;22.00;7.70
774;DHT22;370;48.810;9.150;2022-07-23T03:35:57;21.90;8.30
774;DHT22;370;48.810;9.150;2022-07-23T03:38:23;21.90;8.20
774;DHT22;370;48.810;9.150;2022-07-23T03:40:51;21.90;8.40
774;DHT22;370;48.810;9.150;2022-07-23T03:43:18;21.90;8.10
774;DHT22;370;48.810;9.150;2022-07-23T03:45:45;22.00;7.80
774;DHT22;370;48.810;9.150;2022-07-23T03:48:11;22.20;7.40
774;DHT22;370;48.810;9.150;2022-07-23T03:50:38;22.30;7.10
774;DHT22;370;48.810;9.150;2022-07-23T03:53:05;22.40;6.80
774;DHT22;370;48.810;9.150;2022-07-23T03:55:32;22.30;6.90
774;DHT22;370;48.810;9.150;2022-07-23T03:58:00;22.10;6.70
774;DHT22;370;48.810;9.150;2022-07-23T04:00:27;22.00;6.90
774;DHT22;370;48.810;9.150;2022-07-23T04:02:54;21.80;8.00
774;DHT22;370;48.810;9.150;2022-07-23T04:05:21;21.80;8.80
774;DHT22;370;48.810;9.150;2022-07-23T04:07:47;21.70;9.10
774;DHT22;370;48.810;9.150;2022-07-23T04:10:14;21.70;9.00
774;DHT22;370;48.810;9.150;2022-07-23T04:12:41;21.80;8.80
774;DHT22;370;48.810;9.150;2022-07-23T04:15:09;21.80;7.90
774;DHT22;370;48.810;9.150;2022-07-23T04:17:36;21.90;7.50
774;DHT22;370;48.810;9.150;2022-07-23T04:20:03;22.20;7.30
774;DHT22;370;48.810;9.150;2022-07-23T04:22:30;22.30;6.60
774;DHT22;370;48.810;9.150;2022-07-23T04:24:57;22.40;6.50
774;DHT22;370;48.810;9.150;2022-07-23T04:27:24;22.40;5.70
774;DHT22;370;48.810;9.150;2022-07-23T04:29:50;22.50;5.10
774;DHT22;370;48.810;9.150;2022-07-23T04:32:18;22.70;4.60
774;DHT22;370;48.810;9.150;2022-07-23T04:34:46;22.70;4.60
774;DHT22;370;48.810;9.150;2022-07-23T04:37:12;22.80;4.60
774;DHT22;370;48.810;9.150;2022-07-23T04:39:39;22.80;4.60
774;DHT22;370;48.810;9.150;2022-07-23T04:42:06;22.70;4.60
774;DHT22;370;48.810;9.150;2022-07-23T04:44:32;22.80;4.60
774;DHT22;370;48.810;9.150;2022-07-23T04:46:59;22.90;4.70
774;DHT22;370;48.810;9.150;2022-07-23T04:49:29;22.90;4.60
774;DHT22;370;48.810;9.150;2022-07-23T04:51:55;22.70;4.60
774;DHT22;370;48.810;9.150;2022-07-23T04:54:22;22.70;4.60
774;DHT22;370;48.810;9.150;2022-07-23T04:56:49;22.70;4.60
774;DHT22;370;48.810;9.150;2022-07-23T04:59:15;22.70;4.60
774;DHT22;370;48.810;9.150;2022-07-23T05:01:42;22.80;4.60
774;DHT22;370;48.810;9.150;2022-07-23T05:04:09;22.90;4.70
774;DHT22;370;48.810;9.150;2022-07-23T05:06:37;23.00;4.80
774;DHT22;370;48.810;9.150;2022-07-23T05:09:04;23.10;4.80
774;DHT22;370;48.810;9.150;2022-07-23T05:11:30;23.10;4.20
774;DHT22;370;48.810;9.150;2022-07-23T05:13:57;23.10;4.20
774;DHT22;370;48.810;9.150;2022-07-23T05:16:24;22.90;4.70
774;DHT22;370;48.810;9.150;2022-07-23T05:18:50;22.90;5.00
774;DHT22;370;48.810;9.150;2022-07-23T05:21:18;22.90;4.70
774;DHT22;370;48.810;9.150;2022-07-23T05:23:46;22.90;4.70
774;DHT22;370;48.810;9.150;2022-07-23T05:26:13;23.10;4.80
774;DHT22;370;48.810;9.150;2022-07-23T05:28:39;23.50;4.20
774;DHT22;370;48.810;9.150;2022-07-23T05:31:06;24.00;2.30
774;DHT22;370;48.810;9.150;2022-07-23T05:33:33;24.30;1.20
774;DHT22;370;48.810;9.150;2022-07-23T05:36:03;24.70;1.00
774;DHT22;370;48.810;9.150;2022-07-23T05:38:31;24.90;1.00
774;DHT22;370;48.810;9.150;2022-07-23T05:40:59;25.00;1.00
774;DHT22;370;48.810;9.150;2022-07-23T05:43:26;25.20;1.00
774;DHT22;370;48.810;9.150;2022-07-23T05:45:53;25.30;1.00
774;DHT22;370;48.810;9.150;2022-07-23T05:48:20;25.50;1.00
774;DHT22;370;48.810;9.150;2022-07-23T05:50:47;25.60;1.00
774;DHT22;370;48.810;9.150;2022-07-23T05:53:14;25.70;1.00
774;DHT22;370;48.810;9.150;2022-07-23T05:55:41;25.70;1.00
774;DHT22;370;48.810;9.150;2022-07-23T05:58:09;25.70;1.00
774;DHT22;370;48.810;9.150;2022-07-23T06:00:36;25.90;1.00
774;DHT22;370;48.810;9.150;2022-07-23T06:03:03;26.10;1.00
774;DHT22;370;48.810;9.150;2022-07-23T06:05:29;26.10;1.00
774;DHT22;370;48.810;9.150;2022-07-23T06:07:56;26.20;1.00
774;DHT22;370;48.810;9.150;2022-07-23T06:10:23;26.20;1.00
774;DHT22;370;48.810;9.150;2022-07-23T06:12:50;26.20;1.00
774;DHT22;370;48.810;9.150;2022-07-23T06:15:18;26.10;1.00
774;DHT22;370;48.810;9.150;2022-07-23T06:17:45;26.00;1.00
774;DHT22;370;48.810;9.150;2022-07-23T06:20:11;26.10;1.00
774;DHT22;370;48.810;9.150;2022-07-23T06:22:39;26.30;1.00
774;DHT22;370;48.810;9.150;2022-07-23T06:25:07;26.40;1.00
774;DHT22;370;48.810;9.150;2022-07-23T06:27:34;26.50;1.00
774;DHT22;370;48.810;9.150;2022-07-23T06:30:01;26.60;1.00
774;DHT22;370;48.810;9.150;2022-07-23T06:32:29;26.60;1.00
774;DHT22;370;48.810;9.150;2022-07-23T06:34:55;26.40;1.00
774;DHT22;370;48.810;9.150;2022-07-23T06:37:22;26.40;1.00
774;DHT22;370;48.810;9.150;2022-07-23T06:39:49;26.50;1.00
774;DHT22;370;48.810;9.150;2022-07-23T06:42:15;26.60;1.00
774;DHT22;370;48.810;9.150;2022-07-23T06:44:42;26.60;1.00
774;DHT22;370;48.810;9.150;2022-07-23T06:47:09;26.80;1.00
774;DHT22;370;48.810;9.150;2022-07-23T06:49:37;27.10;1.00
774;DHT22;370;48.810;9.150;2022-07-23T06:52:06;27.40;1.00
774;DHT22;370;48.810;9.150;2022-07-23T06:54:33;27.60;1.00
774;DHT22;370;48.810;9.150;2022-07-23T06:57:00;27.40;1.00
774;DHT22;370;48.810;9.150;2022-07-23T06:59:26;27.30;1.00
774;DHT22;370;48.810;9.150;2022-07-23T07:01:53;27.00;1.00
774;DHT22;370;48.810;9.150;2022-07-23T07:04:20;26.80;1.00
774;DHT22;370;48.810;9.150;2022-07-23T07:06:48;26.40;1.00
774;DHT22;370;48.810;9.150;2022-07-23T07:09:15;26.30;1.00
774;DHT22;370;48.810;9.150;2022-07-23T07:11:41;26.10;1.00
774;DHT22;370;48.810;9.150;2022-07-23T07:14:08;26.00;1.00
774;DHT22;370;48.810;9.150;2022-07-23T07:16:35;26.00;1.00
774;DHT22;370;48.810;9.150;2022-07-23T07:19:02;25.70;1.00
774;DHT22;370;48.810;9.150;2022-07-23T07:21:28;25.30;1.00
774;DHT22;370;48.810;9.150;2022-07-23T07:23:56;25.20;1.00
774;DHT22;370;48.810;9.150;2022-07-23T07:26:23;25.10;1.00
774;DHT22;370;48.810;9.150;2022-07-23T07:28:50;25.10;1.00
774;DHT22;370;48.810;9.150;2022-07-23T07:31:17;25.10;1.00
774;DHT22;370;48.810;9.150;2022-07-23T07:33:43;24.90;1.00
774;DHT22;370;48.810;9.150;2022-07-23T07:36:10;24.90;1.00
774;DHT22;370;48.810;9.150;2022-07-23T07:38:37;24.70;1.80
774;DHT22;370;48.810;9.150;2022-07-23T07:41:05;24.60;4.50
774;DHT22;370;48.810;9.150;2022-07-23T07:43:33;24.40;2.40
774;DHT22;370;48.810;9.150;2022-07-23T07:45:59;24.50;3.40
774;DHT22;370;48.810;9.150;2022-07-23T07:48:26;24.90;1.10
774;DHT22;370;48.810;9.150;2022-07-23T07:50:53;24.90;1.00
774;DHT22;370;48.810;9.150;2022-07-23T07:53:20;25.20;1.00
774;DHT22;370;48.810;9.150;2022-07-23T07:55:46;25.40;1.00
774;DHT22;370;48.810;9.150;2022-07-23T07:58:14;25.50;1.00
774;DHT22;370;48.810;9.150;2022-07-23T08:00:41;25.50;1.00
774;DHT22;370;48.810;9.150;2022-07-23T08:03:08;25.60;1.00
774;DHT22;370;48.810;9.150;2022-07-23T08:05:35;25.60;1.00
774;DHT22;370;48.810;9.150;2022-07-23T08:08:01;25.60;1.00
774;DHT22;370;48.810;9.150;2022-07-23T08:10:29;25.80;1.00
774;DHT22;370;48.810;9.150;2022-07-23T08:12:57;26.10;1.00
774;DHT22;370;48.810;9.150;2022-07-23T08:15:27;26.60;1.00
774;DHT22;370;48.810;9.150;2022-07-23T08:17:54;26.60;1.00
774;DHT22;370;48.810;9.150;2022-07-23T08:20:22;26.50;1.00
774;DHT22;370;48.810;9.150;2022-07-23T08:22:51;26.10;1.00
774;DHT22;370;48.810;9.150;2022-07-23T08:25:21;25.50;1.00
774;DHT22;370;48.810;9.150;2022-07-23T08:27:48;25.40;1.00
774;DHT22;370;48.810;9.150;2022-07-23T08:30:15;25.40;1.00
774;DHT22;370;48.810;9.150;2022-07-23T08:32:52;25.50;1.00
774;DHT22;370;48.810;9.150;2022-07-23T08:35:24;25.50;1.00
774;DHT22;370;48.810;9.150;2022-07-23T08:37:51;25.20;1.00
774;DHT22;370;48.810;9.150;2022-07-23T08:40:18;25.50;1.00
774;DHT22;370;48.810;9.150;2022-07-23T08:42:47;25.80;1.00
774;DHT22;370;48.810;9.150;2022-07-23T08:45:16;26.10;1.00
774;DHT22;370;48.810;9.150;2022-07-23T08:47:44;26.80;1.00
774;DHT22;370;48.810;9.150;2022-07-23T08:50:12;27.80;1.00
774;DHT22;370;48.810;9.150;2022-07-23T08:52:40;28.50;1.00
774;DHT22;370;48.810;9.150;2022-07-23T08:55:07;28.70;1.00
774;DHT22;370;48.810;9.150;2022-07-23T08:57:34;29.00;1.00
774;DHT22;370;48.810;9.150;2022-07-23T09:00:02;28.40;1.00
774;DHT22;370;48.810;9.150;2022-07-23T09:02:29;29.40;1.00
774;DHT22;370;48.810;9.150;2022-07-23T09:04:56;30.30;1.00
774;DHT22;370;48.810;9.150;2022-07-23T09:07:24;31.00;1.00
774;DHT22;370;48.810;9.150;2022-07-23T09:10:05;31.50;1.00
774;DHT22;370;48.810;9.150;2022-07-23T09:12:32;32.20;1.00
774;DHT22;370;48.810;9.150;2022-07-23T09:15:04;32.70;1.00
774;DHT22;370;48.810;9.150;2022-07-23T09:17:38;32.60;1.00
774;DHT22;370;48.810;9.150;2022-07-23T09:20:10;33.50;1.00
774;DHT22;370;48.810;9.150;2022-07-23T09:22:40;33.60;1.00
774;DHT22;370;48.810;9.150;2022-07-23T09:25:11;33.40;1.00
774;DHT22;370;48.810;9.150;2022-07-23T09:27:48;33.00;1.00
774;DHT22;370;48.810;9.150;2022-07-23T09:30:15;32.10;1.00
774;DHT22;370;48.810;9.150;2022-07-23T09:32:42;31.80;1.00
774;DHT22;370;48.810;9.150;2022-07-23T09:35:09;31.70;1.00
774;DHT22;370;48.810;9.150;2022-07-23T09:37:37;32.00;1.00
774;DHT22;370;48.810;9.150;2022-07-23T09:40:05;32.70;1.00
774;DHT22;370;48.810;9.150;2022-07-23T09:42:33;33.40;1.00
774;DHT22;370;48.810;9.150;2022-07-23T09:45:00;33.60;1.00
774;DHT22;370;48.810;9.150;2022-07-23T09:47:28;34.30;1.00
774;DHT22;370;48.810;9.150;2022-07-23T09:50:00;35.00;1.00
774;DHT22;370;48.810;9.150;2022-07-23T09:52:27;36.00;1.00
774;DHT22;370;48.810;9.150;2022-07-23T09:54:59;36.90;1.00
774;DHT22;370;48.810;9.150;2022-07-23T09:57:27;37.30;1.00
774;DHT22;370;48.810;9.150;2022-07-23T09:59:57;38.00;1.00
774;DHT22;370;48.810;9.150;2022-07-23T10:02:24;38.70;1.00
774;DHT22;370;48.810;9.150;2022-07-23T10:04:53;38.90;1.00
774;DHT22;370;48.810;9.150;2022-07-23T10:07:22;39.70;1.00
774;DHT22;370;48.810;9.150;2022-07-23T10:09:50;40.00;1.00
774;DHT22;370;48.810;9.150;2022-07-23T10:12:20;40.60;1.00
774;DHT22;370;48.810;9.150;2022-07-23T10:14:56;41.20;1.00
774;DHT22;370;48.810;9.150;2022-07-23T10:17:23;41.50;1.00
774;DHT22;370;48.810;9.150;2022-07-23T10:19:50;41.70;1.00
774;DHT22;370;48.810;9.150;2022-07-23T10:22:20;41.50;1.00
774;DHT22;370;48.810;9.150;2022-07-23T10:25:10;41.70;1.00
774;DHT22;370;48.810;9.150;2022-07-23T10:30:41;41.60;1.00
774;DHT22;370;48.810;9.150;2022-07-23T10:33:17;41.80;1.00
774;DHT22;370;48.810;9.150;2022-07-23T10:36:09;42.00;1.00
774;DHT22;370;48.810;9.150;2022-07-23T10:38:49;42.00;1.00
774;DHT22;370;48.810;9.150;2022-07-23T10:41:30;42.80;1.00
774;DHT22;370;48.810;9.150;2022-07-23T10:44:07;42.40;1.00
774;DHT22;370;48.810;9.150;2022-07-23T10:46:34;42.80;1.00
774;DHT22;370;48.810;9.150;2022-07-23T10:49:23;43.40;1.00
774;DHT22;370;48.810;9.150;2022-07-23T10:52:16;43.70;1.00
774;DHT22;370;48.810;9.150;2022-07-23T10:54:45;43.10;1.00
774;DHT22;370;48.810;9.150;2022-07-23T10:57:13;42.70;1.00
774;DHT22;370;48.810;9.150;2022-07-23T11:00:16;43.30;1.00
774;DHT22;370;48.810;9.150;2022-07-23T11:02:44;43.70;1.00
774;DHT22;370;48.810;9.150;2022-07-23T11:05:13;43.30;1.00
774;DHT22;370;48.810;9.150;2022-07-23T11:08:11;43.60;1.00
774;DHT22;370;48.810;9.150;2022-07-23T11:10:42;43.60;1.00
774;DHT22;370;48.810;9.150;2022-07-23T11:13:28;42.60;1.00
774;DHT22;370;48.810;9.150;2022-07-23T11:16:17;42.10;1.00
774;DHT22;370;48.810;9.150;2022-07-23T11:19:05;41.10;1.00
774;DHT22;370;48.810;9.150;2022-07-23T11:21:46;39.70;1.00
774;DHT22;370;48.810;9.150;2022-07-23T11:24:15;38.70;1.00
774;DHT22;370;48.810;9.150;2022-07-23T11:26:57;38.00;1.00
774;DHT22;370;48.810;9.150;2022-07-23T11:29:44;36.90;1.00
774;DHT22;370;48.810;9.150;2022-07-23T11:32:31;36.50;1.00
774;DHT22;370;48.810;9.150;2022-07-23T11:34:59;36.50;1.00
774;DHT22;370;48.810;9.150;2022-07-23T11:37:33;36.30;1.00
774;DHT22;370;48.810;9.150;2022-07-23T11:40:00;36.20;1.00
774;DHT22;370;48.810;9.150;2022-07-23T11:42:27;35.90;1.00
774;DHT22;370;48.810;9.150;2022-07-23T11:44:54;36.30;1.00
774;DHT22;370;48.810;9.150;2022-07-23T11:47:24;37.10;1.00
774;DHT22;370;48.810;9.150;2022-07-23T11:49:55;37.80;1.00
774;DHT22;370;48.810;9.150;2022-07-23T11:52:23;38.40;1.00
774;DHT22;370;48.810;9.150;2022-07-23T11:54:54;39.10;1.00
774;DHT22;370;48.810;9.150;2022-07-23T11:57:25;39.80;1.00
774;DHT22;370;48.810;9.150;2022-07-23T11:59:56;40.90;1.00
774;DHT22;370;48.810;9.150;2022-07-23T12:02:24;42.10;1.00
774;DHT22;370;48.810;9.150;2022-07-23T12:04:52;43.10;1.00
774;DHT22;370;48.810;9.150;2022-07-23T12:07:28;43.30;1.00
774;DHT22;370;48.810;9.150;2022-07-23T12:09:57;43.40;1.00
774;DHT22;370;48.810;9.150;2022-07-23T12:12:25;43.20;1.00
774;DHT22;370;48.810;9.150;2022-07-23T12:14:53;43.60;1.00
774;DHT22;370;48.810;9.150;2022-07-23T12:17:21;43.80;1.00
774;DHT22;370;48.810;9.150;2022-07-23T12:19:49;43.70;1.00
774;DHT22;370;48.810;9.150;2022-07-23T12:22:16;43.80;1.00
774;DHT22;370;48.810;9.150;2022-07-23T12:24:53;43.40;1.00
774;DHT22;370;48.810;9.150;2022-07-23T12:27:21;43.00;1.00
774;DHT22;370;48.810;9.150;2022-07-23T12:29:48;42.90;1.00
774;DHT22;370;48.810;9.150;2022-07-23T12:32:19;43.30;1.00
774;DHT22;370;48.810;9.150;2022-07-23T12:34:50;43.60;1.00
774;DHT22;370;48.810;9.150;2022-07-23T12:37:27;43.30;1.00
774;DHT22;370;48.810;9.150;2022-07-23T12:39:55;42.60;1.00
774;DHT22;370;48.810;9.150;2022-07-23T12:42:22;42.70;1.00
774;DHT22;370;48.810;9.150;2022-07-23T12:45:10;42.90;1.00
774;DHT22;370;48.810;9.150;2022-07-23T12:48:08;42.70;1.00
774;DHT22;370;48.810;9.150;2022-07-23T12:50:42;42.60;1.00
774;DHT22;370;48.810;9.150;2022-07-23T12:53:14;42.30;1.00
774;DHT22;370;48.810;9.150;2022-07-23T12:55:42;42.00;1.00
774;DHT22;370;48.810;9.150;2022-07-23T12:58:14;41.40;1.00
774;DHT22;370;48.810;9.150;2022-07-23T13:01:06;40.80;1.00
774;DHT22;370;48.810;9.150;2022-07-23T13:03:35;40.00;1.00
774;DHT22;370;48.810;9.150;2022-07-23T13:06:06;39.20;1.00
774;DHT22;370;48.810;9.150;2022-07-23T13:08:35;38.50;1.00
774;DHT22;370;48.810;9.150;2022-07-23T13:11:03;38.40;1.00
774;DHT22;370;48.810;9.150;2022-07-23T13:13:31;38.10;1.00
774;DHT22;370;48.810;9.150;2022-07-23T13:15:58;37.50;1.00
774;DHT22;370;48.810;9.150;2022-07-23T13:18:26;36.90;1.00
774;DHT22;370;48.810;9.150;2022-07-23T13:20:53;36.40;1.00
774;DHT22;370;48.810;9.150;2022-07-23T13:23:22;36.30;1.00
774;DHT22;370;48.810;9.150;2022-07-23T13:25:49;36.80;1.00
774;DHT22;370;48.810;9.150;2022-07-23T13:28:18;36.90;1.00
774;DHT22;370;48.810;9.150;2022-07-23T13:30:45;37.30;1.00
774;DHT22;370;48.810;9.150;2022-07-23T13:33:15;37.30;1.00
774;DHT22;370;48.810;9.150;2022-07-23T13:35:42;36.80;1.00
774;DHT22;370;48.810;9.150;2022-07-23T13:38:09;36.40;1.00
774;DHT22;370;48.810;9.150;2022-07-23T13:40:40;36.60;1.00
774;DHT22;370;48.810;9.150;2022-07-23T13:43:08;36.90;1.00
774;DHT22;370;48.810;9.150;2022-07-23T13:45:35;37.40;1.00
774;DHT22;370;48.810;9.150;2022-07-23T13:48:04;38.20;1.00
774;DHT22;370;48.810;9.150;2022-07-23T13:50:31;38.30;1.00
774;DHT22;370;48.810;9.150;2022-07-23T13:53:01;38.40;1.00
774;DHT22;370;48.810;9.150;2022-07-23T13:55:27;38.70;1.00
774;DHT22;370;48.810;9.150;2022-07-23T13:57:57;38.60;1.00
774;DHT22;370;48.810;9.150;2022-07-23T14:00:24;38.40;1.00
774;DHT22;370;48.810;9.150;2022-07-23T14:02:51;38.90;1.00
774;DHT22;370;48.810;9.150;2022-07-23T14:05:18;39.40;1.00
774;DHT22;370;48.810;9.150;2022-07-23T14:07:44;39.60;1.00
774;DHT22;370;48.810;9.150;2022-07-23T14:10:13;39.80;1.00
774;DHT22;370;48.810;9.150;2022-07-23T14:12:39;40.00;1.00
774;DHT22;370;48.810;9.150;2022-07-23T14:15:08;40.20;1.00
774;DHT22;370;48.810;9.150;2022-07-23T14:17:36;40.30;1.00
774;DHT22;370;48.810;9.150;2022-07-23T14:20:04;40.40;1.00
774;DHT22;370;48.810;9.150;2022-07-23T14:22:31;40.40;1.00
774;DHT22;370;48.810;9.150;2022-07-23T14:24:58;40.40;1.00
774;DHT22;370;48.810;9.150;2022-07-23T14:27:26;40.10;1.00
774;DHT22;370;48.810;9.150;2022-07-23T14:29:53;40.00;1.00
774;DHT22;370;48.810;9.150;2022-07-23T14:32:22;39.80;1.00
774;DHT22;370;48.810;9.150;2022-07-23T14:34:49;39.10;1.00
774;DHT22;370;48.810;9.150;2022-07-23T14:37:16;39.20;1.00
774;DHT22;370;48.810;9.150;2022-07-23T14:39:45;39.30;1.00
774;DHT22;370;48.810;9.150;2022-07-23T14:42:13;39.40;1.00
774;DHT22;370;48.810;9.150;2022-07-23T14:44:40;39.30;1.00
774;DHT22;370;48.810;9.150;2022-07-23T14:47:08;39.10;1.00
774;DHT22;370;48.810;9.150;2022-07-23T14:49:36;38.90;1.00
774;DHT22;370;48.810;9.150;2022-07-23T14:52:04;38.80;1.00
774;DHT22;370;48.810;9.150;2022-07-23T14:54:31;38.70;1.00
774;DHT22;370;48.810;9.150;2022-07-23T14:56:58;38.50;1.00
774;DHT22;370;48.810;9.150;2022-07-23T14:59:26;38.10;1.00
774;DHT22;370;48.810;9.150;2022-07-23T15:01:53;37.90;1.00
774;DHT22;370;48.810;9.150;2022-07-23T15:04:21;37.90;1.00
774;DHT22;370;48.810;9.150;2022-07-23T15:06:49;37.60;1.00
774;DHT22;370;48.810;9.150;2022-07-23T15:09:16;37.20;1.00
774;DHT22;370;48.810;9.150;2022-07-23T15:11:42;36.40;1.00
774;DHT22;370;48.810;9.150;2022-07-23T15:14:09;36.10;1.00
774;DHT22;370;48.810;9.150;2022-07-23T15:16:36;35.60;1.00
774;DHT22;370;48.810;9.150;2022-07-23T15:19:04;35.40;1.00
774;DHT22;370;48.810;9.150;2022-07-23T15:21:31;35.00;1.00
774;DHT22;370;48.810;9.150;2022-07-23T15:23:59;34.40;1.00
774;DHT22;370;48.810;9.150;2022-07-23T15:26:26;34.10;1.00
774;DHT22;370;48.810;9.150;2022-07-23T15:28:53;33.90;1.00
774;DHT22;370;48.810;9.150;2022-07-23T15:31:20;34.00;1.00
774;DHT22;370;48.810;9.150;2022-07-23T15:33:46;34.20;1.00
774;DHT22;370;48.810;9.150;2022-07-23T15:36:14;34.20;1.00
774;DHT22;370;48.810;9.150;2022-07-23T15:38:41;34.40;1.00
774;DHT22;370;48.810;9.150;2022-07-23T15:41:09;34.40;1.00
774;DHT22;370;48.810;9.150;2022-07-23T15:43:36;34.50;1.00
774;DHT22;370;48.810;9.150;2022-07-23T15:46:03;34.60;1.00
774;DHT22;370;48.810;9.150;2022-07-23T15:48:31;34.60;1.00
774;DHT22;370;48.810;9.150;2022-07-23T15:50:57;34.40;1.00
774;DHT22;370;48.810;9.150;2022-07-23T15:53:24;34.30;1.00
774;DHT22;370;48.810;9.150;2022-07-23T15:55:51;34.20;1.00
774;DHT22;370;48.810;9.150;2022-07-23T15:58:19;34.00;1.00
774;DHT22;370;48.810;9.150;2022-07-23T16:00:46;33.80;1.00
774;DHT22;370;48.810;9.150;2022-07-23T16:03:13;33.60;1.00
774;DHT22;370;48.810;9.150;2022-07-23T16:05:40;33.50;1.00
774;DHT22;370;48.810;9.150;2022-07-23T16:08:07;33.50;1.00
774;DHT22;370;48.810;9.150;2022-07-23T16:10:34;33.30;1.00
774;DHT22;370;48.810;9.150;2022-07-23T16:13:01;33.20;1.00
774;DHT22;370;48.810;9.150;2022-07-23T16:15:29;32.90;1.00
774;DHT22;370;48.810;9.150;2022-07-23T16:17:56;32.70;1.00
774;DHT22;370;48.810;9.150;2022-07-23T16:20:24;32.50;1.00
774;DHT22;370;48.810;9.150;2022-07-23T16:22:51;32.40;1.00
774;DHT22;370;48.810;9.150;2022-07-23T16:25:17;32.30;1.00
774;DHT22;370;48.810;9.150;2022-07-23T16:27:44;32.10;1.00
774;DHT22;370;48.810;9.150;2022-07-23T16:30:12;31.80;1.00
774;DHT22;370;48.810;9.150;2022-07-23T16:32:41;31.60;1.00
774;DHT22;370;48.810;9.150;2022-07-23T16:35:08;31.40;1.00
774;DHT22;370;48.810;9.150;2022-07-23T16:37:35;31.20;1.00
774;DHT22;370;48.810;9.150;2022-07-23T16:40:03;30.80;1.00
774;DHT22;370;48.810;9.150;2022-07-23T16:42:30;30.70;1.00
774;DHT22;370;48.810;9.150;2022-07-23T16:44:57;30.60;1.00
774;DHT22;370;48.810;9.150;2022-07-23T16:47:24;30.50;1.00
774;DHT22;370;48.810;9.150;2022-07-23T16:49:52;30.40;1.00
774;DHT22;370;48.810;9.150;2022-07-23T16:52:19;30.30;1.00
774;DHT22;370;48.810;9.150;2022-07-23T16:54:46;30.40;1.00
774;DHT22;370;48.810;9.150;2022-07-23T16:57:12;30.40;1.00
774;DHT22;370;48.810;9.150;2022-07-23T16:59:39;30.50;1.00
774;DHT22;370;48.810;9.150;2022-07-23T17:02:06;30.50;1.00
774;DHT22;370;48.810;9.150;2022-07-23T17:04:33;30.50;1.00